• Join FlightAware (Why Join?)
  • Login
  • US Flag 
Rudolph Flight #1: Scheduled 
10:19PM EST


 

Airport Tracker/Info


-or-


 

Live Flight TrackerFlight Track Log ✈ ASQ4086 ✈ 06-May-2013 ✈ KIAH - KDAL

Flight Track Log - Related Links

Times and Time Zones

All times are in EDT time to prevent confusion due to time zone crossing. See the ASQ4086 flight status page for this flight to view local times or setup timezone preferences in your user account.

Time Position Orientation Groundspeed Altitude Reporting Facility
EDT Latitude Longitude Course Direction KTS MPH feet Rate Location/Type
04:46PM 29.9639 -95.3458 North 188 216 700  Level Houston Center
04:47PM 29.9644 -95.3964 271° West 253 291 3,800 1,320 Climbing Houston Center
04:49PM 30.3340 -95.4224 349° North  Level FlightAware Approximate
04:49PM 30.1011 -95.3844 North 251 289 5,000  Level Houston Center
04:50PM 30.4219 -95.4444 346° North  Level FlightAware Approximate
04:51PM 30.5096 -95.4667 North  Level FlightAware Approximate
04:51PM 30.2487 -95.4034 349° North  Level FlightAware Approximate
04:52PM 30.3317 -95.4325 349° North 267 307 12,000  Level Houston Center
04:53PM 30.4186 -95.4500 350° North 315 362 13,300 1,500 Climbing Houston Center
04:54PM 30.5153 -95.4711 349° North 350 403 15,100 1,500 Climbing Houston Center
04:56PM 30.7161 -95.5158 349° North 358 412 18,000 900 Climbing Houston Center
04:57PM 30.8194 -95.5394 349° North 371 427 18,000  Level Houston Center
04:58PM 30.9264 -95.5633 349° North 384 442 18,000  Level Houston Center
04:59PM 31.0558 -95.5933 349° North 391 450 18,000  Level Houston Center
05:01PM 31.1670 -95.6147 351° North  Level FlightAware Approximate
05:01PM 31.2703 -95.6683 351° North 389 448 18,000  Level Fort Worth Center
05:03PM 31.3817 -95.6726 329° Northwest  Level FlightAware Approximate
05:03PM 31.4606 -95.7783 329° Northwest 392 451 18,000  Level Houston Center
05:04PM 31.5500 -95.8336 332° Northwest 390 449 18,000  Level Fort Worth Center
05:05PM 31.6531 -95.8953 333° Northwest 388 447 18,000  Level Fort Worth Center
05:06PM 31.7497 -95.9550 332° Northwest 394 453 18,000 -360 Level Fort Worth Center
05:07PM 31.8444 -96.0072 335° Northwest 383 441 17,300 -1,260 Descending Fort Worth Center
05:08PM 31.9369 -96.0669 331° Northwest 376 433 15,500 300 Descending Fort Worth Center
05:09PM 32.0314 -96.1244 333° Northwest 376 433 18,000 -1,860 Climbing Fort Worth Center
05:11PM 32.2167 -96.2333 334° Northwest 271 312 9,600 -3,000 Descending Dallas / Fort Worth TRACON
05:12PM 32.2644 -96.2636 332° Northwest 269 310 9,000 -360 Descending Fort Worth Center
05:13PM 32.3253 -96.2997 333° Northwest 259 298 9,000  Level Fort Worth Center
05:14PM 32.3967 -96.3431 333° Northwest 264 304 9,000 -660 Level Fort Worth Center
05:16PM 32.4833 -96.4333 319° Northwest 260 299 7,300 -1,260 Descending Dallas / Fort Worth TRACON
05:17PM 32.5503 -96.5064 317° Northwest 252 290 5,300 -960 Descending Fort Worth Center
05:18PM 32.6092 -96.5725 317° Northwest 252 290 5,000 -540 Descending Fort Worth Center
05:20PM 32.7000 -96.6667 319° Northwest 254 292 3,900 -780 Descending Dallas / Fort Worth TRACON
05:21PM 32.7500 -96.7167 320° Northwest 259 298 3,100 -960 Descending Dallas / Fort Worth TRACON
05:22PM 32.7833 -96.7833 301° West 192 221 2,000 -1,020 Descending Dallas / Fort Worth TRACON
05:23PM 32.8167 -96.8167 320° Northwest 142 163 1,100 -900 Descending Dallas / Fort Worth TRACON